Time;durP1;ratioP1;P1;durP2;ratioP2;P2;SDS_P1;SDS_P2;PMS_P1;PMS_P2;Temp;Humidity;BMP_temperature;BMP_pressure;BME280_temperature;BME280_humidity;BME280_pressure;Samples;Min_cycle;Max_cycle;Signal;HPM_P1;HPM_P2
2022/08/03 00:01:01;;;;;;;9.50;4.38;;;;;;;;;;5147814;27;20046;-55
2022/08/03 00:03:27;;;;;;;4.07;2.88;;;;;;;;;;5146538;27;20042;-51
2022/08/03 00:05:52;;;;;;;3.53;2.95;;;;;;;;;;5148630;27;20074;-51
2022/08/03 00:08:17;;;;;;;5.30;3.47;;;;;;;;;;5149482;27;20042;-47
2022/08/03 00:10:43;;;;;;;5.10;2.35;;;;;;;;;;5147601;27;20047;-52
2022/08/03 00:13:08;;;;;;;7.18;2.92;;;;;;;;;;5149551;27;20039;-53
2022/08/03 00:15:34;;;;;;;4.13;2.33;;;;;;;;;;5148521;27;20513;-52
2022/08/03 00:17:59;;;;;;;3.95;2.13;;;;;;;;;;5149300;27;20528;-52
2022/08/03 00:20:25;;;;;;;3.95;2.75;;;;;;;;;;5149769;27;20034;-54
2022/08/03 00:22:50;;;;;;;5.43;2.72;;;;;;;;;;5150658;27;20118;-53
2022/08/03 00:25:15;;;;;;;5.53;3.55;;;;;;;;;;5149513;27;20053;-51
2022/08/03 00:27:41;;;;;;;2.97;2.30;;;;;;;;;;5128795;27;20050;-52
2022/08/03 00:30:07;;;;;;;3.78;2.92;;;;;;;;;;5147991;27;20525;-55
2022/08/03 00:32:32;;;;;;;6.30;3.22;;;;;;;;;;5147041;27;20504;-51
2022/08/03 00:34:57;;;;;;;6.85;2.63;;;;;;;;;;5147309;27;20030;-52
2022/08/03 00:37:23;;;;;;;3.65;2.88;;;;;;;;;;5144958;27;20442;-54
2022/08/03 00:39:48;;;;;;;5.22;2.72;;;;;;;;;;5148052;27;20046;-54
2022/08/03 00:42:13;;;;;;;3.58;2.60;;;;;;;;;;5146112;27;20509;-50
2022/08/03 00:44:40;;;;;;;3.30;2.33;;;;;;;;;;5147817;27;20058;-50
2022/08/03 00:47:05;;;;;;;8.05;3.08;;;;;;;;;;5149354;27;20054;-51
2022/08/03 00:49:31;;;;;;;3.92;2.95;;;;;;;;;;5147019;27;20055;-49
2022/08/03 00:51:56;;;;;;;3.05;1.98;;;;;;;;;;5147848;27;20043;-53
2022/08/03 00:54:22;;;;;;;4.90;3.08;;;;;;;;;;5150816;27;20049;-50
2022/08/03 00:56:49;;;;;;;4.13;3.25;;;;;;;;;;5148582;27;20505;-52
2022/08/03 00:59:14;;;;;;;29.70;3.90;;;;;;;;;;5146476;27;20031;-55
2022/08/03 01:01:40;;;;;;;5.50;2.50;;;;;;;;;;5152186;27;20511;-52
2022/08/03 01:04:05;;;;;;;4.07;2.70;;;;;;;;;;5150806;27;20054;-51
2022/08/03 01:06:40;;;;;;;3.13;2.70;;;;;;;;;;5150147;27;20034;-50
2022/08/03 01:09:15;;;;;;;5.38;2.35;;;;;;;;;;5149144;27;20414;-55
2022/08/03 01:11:48;;;;;;;3.55;2.60;;;;;;;;;;5147018;27;21039;-51
2022/08/03 01:14:21;;;;;;;3.88;2.95;;;;;;;;;;5152421;27;20533;-51
2022/08/03 01:16:51;;;;;;;3.30;2.65;;;;;;;;;;5148313;27;20046;-52
2022/08/03 01:19:34;;;;;;;2.53;2.10;;;;;;;;;;5150896;27;20042;-52
2022/08/03 01:22:14;;;;;;;4.15;2.50;;;;;;;;;;5150269;27;20038;-50
2022/08/03 01:24:48;;;;;;;3.13;1.93;;;;;;;;;;5149573;27;20057;-50
2022/08/03 01:27:17;;;;;;;4.85;3.55;;;;;;;;;;5148603;27;20046;-51
2022/08/03 01:29:48;;;;;;;6.63;4.53;;;;;;;;;;5150390;27;20046;-50
2022/08/03 01:32:16;;;;;;;13.50;4.05;;;;;;;;;;5149323;27;20047;-50
2022/08/03 01:34:51;;;;;;;5.00;3.40;;;;;;;;;;5154267;27;20409;-54
2022/08/03 01:37:20;;;;;;;4.38;3.75;;;;;;;;;;5150574;27;20473;-51
2022/08/03 01:39:46;;;;;;;5.85;3.13;;;;;;;;;;5151049;27;20122;-52
2022/08/03 01:42:13;;;;;;;4.10;2.88;;;;;;;;;;5150647;27;20042;-52
2022/08/03 01:44:40;;;;;;;5.10;3.40;;;;;;;;;;5149937;27;20087;-54
2022/08/03 01:47:06;;;;;;;4.10;2.78;;;;;;;;;;5150120;27;20047;-52
2022/08/03 01:49:34;;;;;;;3.53;3.17;;;;;;;;;;5151185;27;20090;-55
2022/08/03 01:52:00;;;;;;;8.25;3.95;;;;;;;;;;5150392;27;20132;-52
2022/08/03 01:54:27;;;;;;;4.75;3.92;;;;;;;;;;5149101;27;20038;-52
2022/08/03 01:56:53;;;;;;;5.53;3.88;;;;;;;;;;5154568;27;20093;-51
2022/08/03 01:59:19;;;;;;;3.05;2.53;;;;;;;;;;5151131;27;20057;-51
2022/08/03 02:01:45;;;;;;;2.30;2.10;;;;;;;;;;5152996;27;20038;-54
2022/08/03 02:04:11;;;;;;;4.25;2.40;;;;;;;;;;5150099;27;20046;-50
2022/08/03 02:06:38;;;;;;;3.65;3.35;;;;;;;;;;5146464;27;20125;-54
2022/08/03 02:09:04;;;;;;;4.43;2.38;;;;;;;;;;5150528;27;20642;-50
2022/08/03 02:11:31;;;;;;;4.90;2.78;;;;;;;;;;5150150;27;20030;-54
2022/08/03 02:13:57;;;;;;;4.20;2.63;;;;;;;;;;5149487;27;20123;-49
2022/08/03 02:16:23;;;;;;;3.28;2.58;;;;;;;;;;5149440;27;20046;-54
2022/08/03 02:18:49;;;;;;;3.58;3.05;;;;;;;;;;5151408;27;20042;-50
2022/08/03 02:21:15;;;;;;;7.32;3.03;;;;;;;;;;5149308;27;20039;-54
2022/08/03 02:23:40;;;;;;;2.95;2.40;;;;;;;;;;5149986;27;20083;-50
2022/08/03 02:26:08;;;;;;;6.32;2.92;;;;;;;;;;5149754;27;20042;-46
2022/08/03 02:28:38;;;;;;;4.88;3.75;;;;;;;;;;5149279;27;20037;-51
2022/08/03 02:31:04;;;;;;;;;;;;;;;;;;5151371;27;20059;-51
2022/08/03 02:33:31;;;;;;;7.47;2.53;;;;;;;;;;5150028;27;20017;-51
2022/08/03 02:35:58;;;;;;;3.83;3.00;;;;;;;;;;5150887;27;20054;-51
2022/08/03 02:38:26;;;;;;;5.20;3.17;;;;;;;;;;5151022;27;20137;-53
2022/08/03 02:40:54;;;;;;;3.90;3.20;;;;;;;;;;5151511;27;20054;-52
2022/08/03 02:43:20;;;;;;;12.60;3.53;;;;;;;;;;5150117;27;20113;-52
2022/08/03 02:45:47;;;;;;;4.57;3.55;;;;;;;;;;5148049;27;20606;-52
2022/08/03 02:48:17;;;;;;;2.47;2.20;;;;;;;;;;5148409;27;20073;-50
2022/08/03 02:50:43;;;;;;;5.55;3.63;;;;;;;;;;5151745;27;20132;-50
2022/08/03 02:53:09;;;;;;;5.45;4.35;;;;;;;;;;5150771;27;20035;-53
2022/08/03 02:55:34;;;;;;;7.03;2.92;;;;;;;;;;5151351;27;20068;-51
2022/08/03 02:58:01;;;;;;;9.55;3.25;;;;;;;;;;5149721;27;20962;-47
2022/08/03 03:00:26;;;;;;;2.78;2.08;;;;;;;;;;5149100;27;20042;-49
2022/08/03 03:02:52;;;;;;;6.25;2.83;;;;;;;;;;5149092;27;20038;-51
2022/08/03 03:05:18;;;;;;;6.63;3.97;;;;;;;;;;5148332;27;20522;-54
2022/08/03 03:07:43;;;;;;;7.90;2.88;;;;;;;;;;5149638;27;20137;-47
2022/08/03 03:10:09;;;;;;;7.22;3.50;;;;;;;;;;5149415;27;22071;-51
2022/08/03 03:12:35;;;;;;;5.90;3.53;;;;;;;;;;5149137;27;20133;-50
2022/08/03 03:15:01;;;;;;;3.53;2.95;;;;;;;;;;5148973;27;20034;-51
2022/08/03 03:17:26;;;;;;;6.28;3.50;;;;;;;;;;5148913;27;20050;-49
2022/08/03 03:19:52;;;;;;;5.05;3.08;;;;;;;;;;5149023;27;20050;-50
2022/08/03 03:22:18;;;;;;;4.60;4.10;;;;;;;;;;5146466;27;20421;-50
2022/08/03 03:24:44;;;;;;;14.65;3.35;;;;;;;;;;5148002;27;20070;-52
2022/08/03 03:27:10;;;;;;;4.03;2.80;;;;;;;;;;5148371;27;20053;-52
2022/08/03 03:29:35;;;;;;;7.47;2.72;;;;;;;;;;5150840;27;20473;-54
2022/08/03 03:32:01;;;;;;;5.43;3.80;;;;;;;;;;5151255;27;20050;-52
2022/08/03 03:34:28;;;;;;;4.43;3.33;;;;;;;;;;5149337;27;20480;-47
2022/08/03 03:36:53;;;;;;;5.70;3.17;;;;;;;;;;5148573;27;20042;-52
2022/08/03 03:39:18;;;;;;;4.65;3.45;;;;;;;;;;5148692;27;20489;-54
2022/08/03 03:41:44;;;;;;;8.35;2.97;;;;;;;;;;5148490;27;20336;-51
2022/08/03 03:44:09;;;;;;;5.20;2.58;;;;;;;;;;5149277;27;20822;-51
2022/08/03 03:46:36;;;;;;;6.40;4.22;;;;;;;;;;5148504;27;20584;-50
2022/08/03 03:49:01;;;;;;;6.82;4.18;;;;;;;;;;5145835;27;20069;-53
2022/08/03 03:51:26;;;;;;;6.43;3.78;;;;;;;;;;5151766;27;20070;-53
2022/08/03 03:53:56;;;;;;;2.78;2.50;;;;;;;;;;5145342;27;20430;-48
2022/08/03 03:56:21;;;;;;;3.97;3.15;;;;;;;;;;5148088;27;20489;-53
2022/08/03 03:58:47;;;;;;;3.53;2.88;;;;;;;;;;5148624;27;20082;-50
2022/08/03 04:01:12;;;;;;;4.78;3.13;;;;;;;;;;5150622;27;20082;-52
2022/08/03 04:03:37;;;;;;;3.97;3.17;;;;;;;;;;5152758;27;20039;-49
2022/08/03 04:11:35;;;;;;;4.05;2.92;;;;;;;;;;5145588;27;20034;-48
2022/08/03 04:14:00;;;;;;;4.32;2.92;;;;;;;;;;5148741;27;20045;-49
2022/08/03 04:16:27;;;;;;;4.85;3.15;;;;;;;;;;5148092;27;20042;-48
2022/08/03 04:18:56;;;;;;;9.15;3.05;;;;;;;;;;5148155;27;20125;-50
2022/08/03 04:21:22;;;;;;;3.42;3.05;;;;;;;;;;5148555;27;20039;-53
2022/08/03 04:23:50;;;;;;;4.45;3.25;;;;;;;;;;5148171;27;20047;-54
2022/08/03 04:26:17;;;;;;;4.00;3.63;;;;;;;;;;5147900;27;20126;-49
2022/08/03 04:28:44;;;;;;;3.20;2.65;;;;;;;;;;5147361;27;20137;-50
2022/08/03 04:31:10;;;;;;;3.92;3.08;;;;;;;;;;5148375;27;20507;-51
2022/08/03 04:33:37;;;;;;;7.35;3.63;;;;;;;;;;5148055;27;20046;-51
2022/08/03 04:36:04;;;;;;;4.30;2.72;;;;;;;;;;5150893;27;20064;-50
2022/08/03 04:38:31;;;;;;;6.03;3.08;;;;;;;;;;5151130;27;20047;-49
2022/08/03 04:40:58;;;;;;;3.72;2.88;;;;;;;;;;5151464;27;20132;-53
2022/08/03 04:43:24;;;;;;;5.65;3.15;;;;;;;;;;5149864;27;20501;-50
2022/08/03 04:45:50;;;;;;;7.72;3.42;;;;;;;;;;5148582;27;20042;-47
2022/08/03 04:48:15;;;;;;;4.43;3.15;;;;;;;;;;5148845;27;20051;-52
2022/08/03 04:50:41;;;;;;;5.28;3.17;;;;;;;;;;5144126;27;20515;-49
2022/08/03 04:53:07;;;;;;;5.40;3.55;;;;;;;;;;5150818;27;20039;-52
2022/08/03 04:55:33;;;;;;;8.50;3.10;;;;;;;;;;5150953;27;20050;-52
2022/08/03 04:57:59;;;;;;;10.15;4.80;;;;;;;;;;5148021;27;20050;-49
2022/08/03 05:00:25;;;;;;;6.03;4.15;;;;;;;;;;5151503;27;20069;-51
2022/08/03 05:02:50;;;;;;;10.70;5.13;;;;;;;;;;5150270;27;20076;-52
2022/08/03 05:05:16;;;;;;;3.65;3.08;;;;;;;;;;5150541;27;20079;-49
2022/08/03 05:07:42;;;;;;;7.05;3.72;;;;;;;;;;5149607;27;20215;-52
2022/08/03 05:10:08;;;;;;;3.03;2.63;;;;;;;;;;5150890;27;20445;-50
2022/08/03 05:12:33;;;;;;;5.70;3.95;;;;;;;;;;5150353;27;20038;-53
2022/08/03 05:14:59;;;;;;;4.45;2.75;;;;;;;;;;5149290;27;20046;-52
2022/08/03 05:17:24;;;;;;;3.05;2.67;;;;;;;;;;5149874;27;20049;-52
2022/08/03 05:19:50;;;;;;;9.25;3.42;;;;;;;;;;5153361;27;20447;-54
2022/08/03 05:22:15;;;;;;;4.47;3.40;;;;;;;;;;5151879;27;20409;-50
2022/08/03 05:24:40;;;;;;;5.18;4.05;;;;;;;;;;5149986;27;20531;-54
2022/08/03 05:27:05;;;;;;;8.82;4.03;;;;;;;;;;5150971;27;20505;-54
2022/08/03 05:29:31;;;;;;;4.07;3.67;;;;;;;;;;5149136;27;20062;-50
2022/08/03 05:31:56;;;;;;;8.23;4.90;;;;;;;;;;5150264;27;20144;-53
2022/08/03 05:34:21;;;;;;;9.40;3.88;;;;;;;;;;5150896;27;20039;-51
2022/08/03 05:36:47;;;;;;;6.78;3.53;;;;;;;;;;5150939;27;20482;-51
2022/08/03 05:39:12;;;;;;;4.93;3.42;;;;;;;;;;5150929;27;20039;-50
2022/08/03 05:41:37;;;;;;;6.53;3.97;;;;;;;;;;5148644;27;20096;-47
2022/08/03 05:44:03;;;;;;;7.35;5.57;;;;;;;;;;5151139;27;20038;-51
2022/08/03 05:46:28;;;;;;;5.80;4.63;;;;;;;;;;5149150;27;20054;-54
2022/08/03 05:48:54;;;;;;;6.50;5.32;;;;;;;;;;5151345;27;20046;-49
2022/08/03 05:51:19;;;;;;;9.07;5.32;;;;;;;;;;5149465;27;20054;-52
2022/08/03 05:53:44;;;;;;;8.63;6.22;;;;;;;;;;5150732;27;20066;-53
2022/08/03 05:56:10;;;;;;;7.20;4.07;;;;;;;;;;5151259;27;20042;-47
2022/08/03 05:58:35;;;;;;;13.43;4.97;;;;;;;;;;5152147;27;20064;-49
2022/08/03 06:01:00;;;;;;;7.72;5.38;;;;;;;;;;5149738;27;20138;-51
2022/08/03 06:03:26;;;;;;;11.80;5.80;;;;;;;;;;5151489;27;20122;-51
2022/08/03 06:05:53;;;;;;;12.38;5.70;;;;;;;;;;5150261;27;20053;-53
2022/08/03 06:08:18;;;;;;;7.85;5.72;;;;;;;;;;5149530;27;20047;-51
2022/08/03 06:10:43;;;;;;;18.23;6.00;;;;;;;;;;5149409;27;20043;-51
2022/08/03 06:13:09;;;;;;;16.25;4.75;;;;;;;;;;5149556;27;20607;-49
2022/08/03 06:15:34;;;;;;;6.28;4.90;;;;;;;;;;5149132;27;20319;-52
2022/08/03 06:17:59;;;;;;;13.75;5.28;;;;;;;;;;5150195;27;20506;-55
2022/08/03 06:20:25;;;;;;;8.93;5.55;;;;;;;;;;5149406;27;20031;-53
2022/08/03 06:22:50;;;;;;;10.07;4.95;;;;;;;;;;5149895;27;20087;-52
2022/08/03 06:25:16;;;;;;;31.95;8.00;;;;;;;;;;5150721;27;20030;-51
2022/08/03 06:27:41;;;;;;;11.05;5.40;;;;;;;;;;5150532;27;20042;-52
2022/08/03 06:30:07;;;;;;;9.15;5.68;;;;;;;;;;5150106;27;20057;-49
2022/08/03 06:32:33;;;;;;;13.48;4.65;;;;;;;;;;5149609;27;20048;-51
2022/08/03 06:34:59;;;;;;;11.48;5.75;;;;;;;;;;5146472;27;20091;-47
2022/08/03 06:37:25;;;;;;;5.55;4.57;;;;;;;;;;5150915;27;20111;-52
2022/08/03 06:39:51;;;;;;;9.70;4.80;;;;;;;;;;5149298;27;20049;-53
2022/08/03 06:42:16;;;;;;;19.85;12.23;;;;;;;;;;5149391;27;20040;-50
2022/08/03 06:44:41;;;;;;;14.23;5.55;;;;;;;;;;5150675;27;20118;-52
2022/08/03 06:47:07;;;;;;;4.47;3.90;;;;;;;;;;5149872;27;20057;-52
2022/08/03 06:49:32;;;;;;;10.82;4.55;;;;;;;;;;5149104;27;20031;-51
2022/08/03 06:51:57;;;;;;;8.63;4.57;;;;;;;;;;5150832;27;20667;-50
2022/08/03 06:54:23;;;;;;;19.60;5.45;;;;;;;;;;5147756;27;20445;-53
2022/08/03 06:56:48;;;;;;;11.63;7.18;;;;;;;;;;5146797;27;20039;-49
2022/08/03 06:59:14;;;;;;;12.30;6.57;;;;;;;;;;5147733;27;20420;-53
2022/08/03 07:01:39;;;;;;;15.15;7.45;;;;;;;;;;5149794;27;20046;-54
2022/08/03 07:04:04;;;;;;;13.18;5.95;;;;;;;;;;5150086;27;20477;-51
2022/08/03 07:06:30;;;;;;;19.50;6.45;;;;;;;;;;5149070;27;20034;-54
2022/08/03 07:08:56;;;;;;;4.70;3.50;;;;;;;;;;5148902;27;20544;-55
2022/08/03 07:11:21;;;;;;;4.20;3.20;;;;;;;;;;5145150;27;20051;-52
2022/08/03 07:13:46;;;;;;;19.05;3.90;;;;;;;;;;5150331;27;20065;-51
2022/08/03 07:16:12;;;;;;;9.50;4.03;;;;;;;;;;5150360;27;20059;-49
2022/08/03 07:18:38;;;;;;;5.95;4.40;;;;;;;;;;5147764;27;20042;-48
2022/08/03 07:21:03;;;;;;;11.75;4.40;;;;;;;;;;5148582;27;20048;-48
2022/08/03 07:23:29;;;;;;;4.70;4.30;;;;;;;;;;5148719;27;20046;-51
2022/08/03 07:25:55;;;;;;;6.20;4.32;;;;;;;;;;5145356;27;20101;-51
2022/08/03 07:28:20;;;;;;;4.75;2.88;;;;;;;;;;5150629;27;20501;-55
2022/08/03 07:30:45;;;;;;;8.65;4.93;;;;;;;;;;5148288;27;20610;-53
2022/08/03 07:33:11;;;;;;;8.40;3.63;;;;;;;;;;5148167;27;20318;-51
2022/08/03 07:35:36;;;;;;;3.00;2.63;;;;;;;;;;5153476;27;20054;-54
2022/08/03 07:38:02;;;;;;;6.53;2.30;;;;;;;;;;5149296;27;20621;-54
2022/08/03 07:40:27;;;;;;;12.43;4.63;;;;;;;;;;5149154;27;20046;-53
2022/08/03 07:42:52;;;;;;;10.45;3.53;;;;;;;;;;5146434;27;20070;-53
2022/08/03 07:45:18;;;;;;;5.18;2.47;;;;;;;;;;5148242;27;20047;-54
2022/08/03 07:47:43;;;;;;;1.98;1.52;;;;;;;;;;5152680;27;20039;-53
2022/08/03 07:50:08;;;;;;;11.77;3.20;;;;;;;;;;5146859;27;20035;-56
2022/08/03 07:52:50;;;;;;;3.78;2.50;;;;;;;;;;5148663;27;20054;-54
2022/08/03 07:55:20;;;;;;;2.88;2.25;;;;;;;;;;5145803;27;20107;-53
2022/08/03 07:57:46;;;;;;;6.05;4.05;;;;;;;;;;5147437;27;20213;-54
2022/08/03 08:00:14;;;;;;;6.20;4.65;;;;;;;;;;5150383;27;20121;-53
2022/08/03 08:02:39;;;;;;;7.10;3.92;;;;;;;;;;5144014;27;20038;-55
2022/08/03 08:05:05;;;;;;;5.32;3.35;;;;;;;;;;5148459;27;20160;-53
2022/08/03 08:07:30;;;;;;;5.20;2.88;;;;;;;;;;5147939;27;20523;-51
2022/08/03 08:09:56;;;;;;;4.05;2.65;;;;;;;;;;5147765;27;20031;-54
2022/08/03 08:12:21;;;;;;;3.58;2.95;;;;;;;;;;5148681;27;20512;-54
2022/08/03 08:14:46;;;;;;;3.92;2.22;;;;;;;;;;5149203;27;20039;-53
2022/08/03 08:17:12;;;;;;;2.45;1.60;;;;;;;;;;5148060;27;20382;-50
2022/08/03 08:19:39;;;;;;;2.33;2.08;;;;;;;;;;5124062;28;20462;-54
2022/08/03 08:22:05;;;;;;;2.47;2.13;;;;;;;;;;5124169;28;20055;-53
2022/08/03 08:24:31;;;;;;;3.17;2.95;;;;;;;;;;5125293;28;20043;-53
2022/08/03 08:26:56;;;;;;;9.73;2.35;;;;;;;;;;5124338;28;20027;-54
2022/08/03 08:29:22;;;;;;;4.25;3.20;;;;;;;;;;5106119;28;20678;-55
2022/08/03 08:31:48;;;;;;;4.03;2.22;;;;;;;;;;5123500;28;20639;-52
2022/08/03 08:34:14;;;;;;;1.92;1.38;;;;;;;;;;5123194;28;20132;-53
2022/08/03 08:36:39;;;;;;;3.13;2.42;;;;;;;;;;5123202;28;20113;-51
2022/08/03 08:39:04;;;;;;;8.88;1.40;;;;;;;;;;5124109;28;20489;-55
2022/08/03 08:41:32;;;;;;;1.25;0.88;;;;;;;;;;5123927;28;20490;-55
2022/08/03 08:43:58;;;;;;;1.42;1.05;;;;;;;;;;5123231;28;20038;-55
2022/08/03 08:46:23;;;;;;;2.25;1.88;;;;;;;;;;5125027;28;20039;-52
2022/08/03 08:48:49;;;;;;;2.67;1.60;;;;;;;;;;5122504;28;20047;-55
2022/08/03 08:51:15;;;;;;;1.58;1.33;;;;;;;;;;5123066;28;20489;-50
2022/08/03 08:53:43;;;;;;;1.15;0.80;;;;;;;;;;5123037;28;20055;-53
2022/08/03 08:56:14;;;;;;;1.67;1.48;;;;;;;;;;5123068;28;20139;-52
2022/08/03 08:58:40;;;;;;;2.65;0.90;;;;;;;;;;5124600;28;20117;-54
2022/08/03 09:01:06;;;;;;;1.52;1.27;;;;;;;;;;5124982;28;20647;-54
2022/08/03 09:03:32;;;;;;;1.75;1.52;;;;;;;;;;5120279;28;20107;-54
2022/08/03 09:05:58;;;;;;;2.90;0.93;;;;;;;;;;5114745;28;20089;-56
2022/08/03 09:08:24;;;;;;;2.40;1.30;;;;;;;;;;5121940;28;20062;-54
2022/08/03 09:10:49;;;;;;;1.52;0.70;;;;;;;;;;5120853;28;20502;-55
2022/08/03 09:13:15;;;;;;;5.75;1.20;;;;;;;;;;5122107;28;20039;-56
2022/08/03 09:15:41;;;;;;;3.00;1.65;;;;;;;;;;5117187;28;20060;-54
2022/08/03 09:18:08;;;;;;;2.83;1.23;;;;;;;;;;5122001;28;20093;-56
2022/08/03 09:20:33;;;;;;;6.10;1.98;;;;;;;;;;5121219;27;20498;-57
2022/08/03 09:23:01;;;;;;;1.63;0.60;;;;;;;;;;5124251;28;20045;-56
2022/08/03 09:25:27;;;;;;;3.72;1.65;;;;;;;;;;5127179;28;20696;-57
2022/08/03 09:27:53;;;;;;;3.38;1.85;;;;;;;;;;5127083;28;20031;-54
2022/08/03 09:30:19;;;;;;;5.22;1.77;;;;;;;;;;5128258;28;20050;-56
2022/08/03 09:32:45;;;;;;;2.92;1.25;;;;;;;;;;5127396;28;20043;-54
2022/08/03 09:35:11;;;;;;;7.70;2.00;;;;;;;;;;5127150;28;20081;-55
2022/08/03 09:37:36;;;;;;;2.90;1.30;;;;;;;;;;5125232;28;20044;-57
2022/08/03 09:40:02;;;;;;;2.85;1.92;;;;;;;;;;5125764;27;20419;-57
2022/08/03 09:42:27;;;;;;;1.65;0.90;;;;;;;;;;5126179;28;20431;-56
2022/08/03 09:44:53;;;;;;;2.85;1.17;;;;;;;;;;5126667;28;20116;-57
2022/08/03 09:47:29;;;;;;;1.95;1.50;;;;;;;;;;5126057;28;20151;-55
2022/08/03 09:50:02;;;;;;;2.25;1.73;;;;;;;;;;5126506;28;20033;-56
2022/08/03 09:52:31;;;;;;;2.42;1.85;;;;;;;;;;5125698;28;20047;-56
2022/08/03 09:54:58;;;;;;;10.43;2.25;;;;;;;;;;5126679;28;20050;-56
2022/08/03 09:57:24;;;;;;;2.20;1.48;;;;;;;;;;5127641;28;20043;-55
2022/08/03 09:59:50;;;;;;;1.60;1.23;;;;;;;;;;5127255;28;20121;-58
2022/08/03 10:02:23;;;;;;;4.03;2.75;;;;;;;;;;5124893;28;20046;-57
2022/08/03 10:04:51;;;;;;;2.70;1.85;;;;;;;;;;5126523;28;20129;-55
2022/08/03 10:07:17;;;;;;;3.33;1.80;;;;;;;;;;5126920;28;20035;-57
2022/08/03 10:09:54;;;;;;;11.57;1.55;;;;;;;;;;5126615;28;20537;-57
2022/08/03 10:12:20;;;;;;;1.88;1.30;;;;;;;;;;5125900;28;20043;-57
2022/08/03 10:14:45;;;;;;;5.93;1.25;;;;;;;;;;5128126;28;20504;-56
2022/08/03 10:17:11;;;;;;;1.27;0.60;;;;;;;;;;5126457;28;20035;-57
2022/08/03 10:19:36;;;;;;;2.13;1.20;;;;;;;;;;5126963;28;20042;-57
2022/08/03 10:22:12;;;;;;;4.82;1.45;;;;;;;;;;5123961;28;20566;-57
2022/08/03 10:24:42;;;;;;;1.30;0.95;;;;;;;;;;5123290;28;20047;-57
2022/08/03 10:27:09;;;;;;;11.35;1.52;;;;;;;;;;5126125;28;20035;-56
2022/08/03 10:29:39;;;;;;;1.27;0.90;;;;;;;;;;5124612;28;20031;-55
2022/08/03 10:32:09;;;;;;;1.13;0.60;;;;;;;;;;5127007;27;20035;-56
2022/08/03 10:34:39;;;;;;;1.70;1.20;;;;;;;;;;5126191;28;20103;-57
2022/08/03 10:37:09;;;;;;;3.57;0.93;;;;;;;;;;5126318;28;20637;-57
2022/08/03 10:39:34;;;;;;;2.13;1.02;;;;;;;;;;5125707;28;20035;-57
2022/08/03 10:42:00;;;;;;;0.90;0.47;;;;;;;;;;5126455;28;20585;-57
2022/08/03 10:44:28;;;;;;;3.70;1.10;;;;;;;;;;5126605;28;20054;-57
2022/08/03 10:46:54;;;;;;;1.75;1.40;;;;;;;;;;5123457;28;20087;-56
2022/08/03 10:49:20;;;;;;;1.00;0.60;;;;;;;;;;5124839;28;20034;-55
2022/08/03 10:51:46;;;;;;;2.53;1.33;;;;;;;;;;5126847;28;20094;-56
2022/08/03 10:54:30;;;;;;;1.58;1.17;;;;;;;;;;5124910;28;20039;-57
2022/08/03 10:59:45;;;;;;;1.83;1.15;;;;;;;;;;5126820;28;20081;-57
2022/08/03 11:02:12;;;;;;;0.73;0.47;;;;;;;;;;5125648;28;20063;-56
2022/08/03 11:04:38;;;;;;;1.63;1.10;;;;;;;;;;5126323;28;20111;-57
2022/08/03 11:07:16;;;;;;;1.58;1.33;;;;;;;;;;5126991;28;20617;-57
2022/08/03 11:09:48;;;;;;;8.95;1.75;;;;;;;;;;5125148;28;20035;-57
2022/08/03 11:12:20;;;;;;;4.70;1.35;;;;;;;;;;5125206;28;20115;-55
2022/08/03 11:14:47;;;;;;;1.98;0.95;;;;;;;;;;5125328;28;20063;-56
2022/08/03 11:17:12;;;;;;;1.00;0.90;;;;;;;;;;5124318;28;20101;-56
2022/08/03 11:19:57;;;;;;;3.20;1.15;;;;;;;;;;5125237;28;20035;-57
2022/08/03 11:22:23;;;;;;;3.42;1.67;;;;;;;;;;5123587;28;20039;-56
2022/08/03 11:24:56;;;;;;;1.55;0.50;;;;;;;;;;5124231;28;20063;-57
2022/08/03 11:27:26;;;;;;;2.13;1.52;;;;;;;;;;5125731;28;20895;-57
2022/08/03 11:29:55;;;;;;;1.42;0.90;;;;;;;;;;5126716;28;20433;-57
2022/08/03 11:32:39;;;;;;;5.43;1.15;;;;;;;;;;5125815;28;20074;-57
2022/08/03 11:35:14;;;;;;;5.40;1.20;;;;;;;;;;5120807;28;20030;-56
2022/08/03 11:38:05;;;;;;;1.48;1.25;;;;;;;;;;5125297;28;20068;-57
2022/08/03 11:40:34;;;;;;;1.88;0.60;;;;;;;;;;5125292;28;20088;-57
2022/08/03 11:42:59;;;;;;;1.13;0.60;;;;;;;;;;5125555;27;20039;-57
2022/08/03 11:45:25;;;;;;;3.38;1.27;;;;;;;;;;5122457;28;20044;-57
2022/08/03 11:47:54;;;;;;;2.70;0.70;;;;;;;;;;5126565;28;20505;-56
2022/08/03 11:50:20;;;;;;;1.60;1.08;;;;;;;;;;5125575;28;20142;-57
2022/08/03 11:52:46;;;;;;;5.03;1.25;;;;;;;;;;5125773;28;20647;-56
2022/08/03 11:55:12;;;;;;;2.40;0.93;;;;;;;;;;5123819;28;20055;-57
2022/08/03 11:57:37;;;;;;;3.00;1.10;;;;;;;;;;5124245;28;20031;-57
2022/08/03 12:00:19;;;;;;;2.50;1.40;;;;;;;;;;5123001;28;20031;-56
2022/08/03 12:02:52;;;;;;;1.00;0.70;;;;;;;;;;5123124;28;20043;-57
2022/08/03 12:05:18;;;;;;;1.95;1.13;;;;;;;;;;5121647;28;20134;-57
2022/08/03 12:07:45;;;;;;;1.35;1.00;;;;;;;;;;5125315;28;20186;-56
2022/08/03 12:10:12;;;;;;;1.08;0.88;;;;;;;;;;5123936;28;20135;-57
2022/08/03 12:12:38;;;;;;;1.55;1.05;;;;;;;;;;5123092;28;20046;-57
2022/08/03 12:15:04;;;;;;;6.25;1.75;;;;;;;;;;5125328;28;20130;-57
2022/08/03 12:17:33;;;;;;;1.45;1.00;;;;;;;;;;5123219;28;20158;-57
2022/08/03 12:19:59;;;;;;;0.80;0.50;;;;;;;;;;5123993;28;20038;-56
2022/08/03 12:22:33;;;;;;;2.25;1.13;;;;;;;;;;5124408;28;20096;-57
2022/08/03 12:24:59;;;;;;;0.88;0.60;;;;;;;;;;5124432;28;20041;-57
2022/08/03 12:27:26;;;;;;;4.70;1.05;;;;;;;;;;5124300;28;20051;-58
2022/08/03 12:29:53;;;;;;;1.10;0.75;;;;;;;;;;5122602;28;20327;-58
2022/08/03 12:32:18;;;;;;;4.10;0.73;;;;;;;;;;5124873;28;20038;-56
2022/08/03 12:34:47;;;;;;;3.22;1.25;;;;;;;;;;5122402;28;20055;-56
2022/08/03 12:37:12;;;;;;;1.00;0.60;;;;;;;;;;5124791;28;20145;-55
2022/08/03 12:39:38;;;;;;;1.05;0.65;;;;;;;;;;5124737;28;20553;-57
2022/08/03 12:42:03;;;;;;;1.92;1.17;;;;;;;;;;5124904;28;20043;-56
2022/08/03 12:44:34;;;;;;;2.92;1.90;;;;;;;;;;5124349;28;20754;-57
2022/08/03 12:47:00;;;;;;;3.67;1.67;;;;;;;;;;5123772;28;20505;-58
2022/08/03 12:49:26;;;;;;;1.13;0.88;;;;;;;;;;5124699;28;20043;-56
2022/08/03 12:51:51;;;;;;;2.13;1.17;;;;;;;;;;5123824;28;20031;-57
2022/08/03 12:54:21;;;;;;;1.45;0.70;;;;;;;;;;5124116;27;20035;-56
2022/08/03 12:57:03;;;;;;;2.40;1.30;;;;;;;;;;5126643;28;20032;-55
2022/08/03 12:59:48;;;;;;;2.22;1.00;;;;;;;;;;5128253;28;20069;-58
2022/08/03 13:02:17;;;;;;;1.50;1.05;;;;;;;;;;5126803;28;20070;-56
2022/08/03 13:04:47;;;;;;;0.85;0.70;;;;;;;;;;5126170;28;20049;-54
2022/08/03 13:07:13;;;;;;;2.83;2.07;;;;;;;;;;5127135;28;20447;-56
2022/08/03 13:09:42;;;;;;;2.75;0.98;;;;;;;;;;5128796;28;20556;-56
2022/08/03 13:12:12;;;;;;;1.88;1.00;;;;;;;;;;5123858;28;20111;-56
2022/08/03 13:14:38;;;;;;;0.68;0.47;;;;;;;;;;5127266;28;20054;-57
2022/08/03 13:17:05;;;;;;;1.45;0.95;;;;;;;;;;5127559;28;20078;-57
2022/08/03 13:19:30;;;;;;;2.10;1.05;;;;;;;;;;5127081;28;20045;-56
2022/08/03 13:21:56;;;;;;;2.05;1.25;;;;;;;;;;5125762;28;20043;-56
2022/08/03 13:24:21;;;;;;;3.22;2.08;;;;;;;;;;5128346;28;20092;-56
2022/08/03 13:26:46;;;;;;;1.55;1.05;;;;;;;;;;5126754;28;20100;-56
2022/08/03 13:29:12;;;;;;;1.17;0.90;;;;;;;;;;5128092;28;20046;-56
2022/08/03 13:31:37;;;;;;;2.20;0.73;;;;;;;;;;5127518;28;20035;-55
2022/08/03 13:34:02;;;;;;;0.80;0.68;;;;;;;;;;5127963;28;20080;-57
2022/08/03 13:36:28;;;;;;;2.25;1.23;;;;;;;;;;5126202;28;20095;-56
2022/08/03 13:38:53;;;;;;;1.65;1.20;;;;;;;;;;5127869;28;20046;-55
2022/08/03 13:41:18;;;;;;;3.40;0.68;;;;;;;;;;5125961;28;20043;-56
2022/08/03 13:43:44;;;;;;;0.75;0.68;;;;;;;;;;5128386;28;20047;-56
2022/08/03 13:46:09;;;;;;;1.98;1.55;;;;;;;;;;5128227;28;20047;-56
2022/08/03 13:48:34;;;;;;;1.30;0.82;;;;;;;;;;5127290;28;20044;-56
2022/08/03 13:50:59;;;;;;;1.75;1.13;;;;;;;;;;5128683;28;20035;-54
2022/08/03 13:53:25;;;;;;;1.67;0.88;;;;;;;;;;5128528;28;20031;-56
2022/08/03 13:55:50;;;;;;;2.33;0.80;;;;;;;;;;5125679;28;20047;-55
2022/08/03 13:58:15;;;;;;;6.30;1.08;;;;;;;;;;5128524;28;20090;-56
2022/08/03 14:00:41;;;;;;;0.88;0.45;;;;;;;;;;5125923;28;20039;-55
2022/08/03 14:03:07;;;;;;;1.05;0.57;;;;;;;;;;5123383;28;20088;-54
2022/08/03 14:05:33;;;;;;;2.40;1.20;;;;;;;;;;5128339;27;20082;-55
2022/08/03 14:07:59;;;;;;;6.13;1.45;;;;;;;;;;5123632;28;20066;-56
2022/08/03 14:10:25;;;;;;;1.30;0.77;;;;;;;;;;5124484;28;20041;-55
2022/08/03 14:12:50;;;;;;;2.28;1.15;;;;;;;;;;5124817;28;20066;-56
2022/08/03 14:15:15;;;;;;;1.60;1.08;;;;;;;;;;5125417;28;20043;-56
2022/08/03 14:17:41;;;;;;;0.80;0.60;;;;;;;;;;5125239;28;20527;-56
2022/08/03 14:20:07;;;;;;;0.82;0.80;;;;;;;;;;5125639;27;20626;-56
2022/08/03 14:22:32;;;;;;;0.98;0.57;;;;;;;;;;5125374;28;20039;-56
2022/08/03 14:24:57;;;;;;;4.00;1.13;;;;;;;;;;5106881;28;20074;-56
2022/08/03 14:27:23;;;;;;;4.40;1.10;;;;;;;;;;5125015;28;20063;-57
2022/08/03 14:29:48;;;;;;;1.08;0.80;;;;;;;;;;5123782;28;20157;-57
2022/08/03 14:32:13;;;;;;;5.30;1.00;;;;;;;;;;5125207;28;20119;-57
2022/08/03 14:34:39;;;;;;;1.80;1.00;;;;;;;;;;5125141;28;20047;-57
2022/08/03 14:37:05;;;;;;;1.40;0.82;;;;;;;;;;5124436;28;20043;-56
2022/08/03 14:39:30;;;;;;;0.93;0.60;;;;;;;;;;5123624;28;20677;-56
2022/08/03 14:41:55;;;;;;;1.23;0.80;;;;;;;;;;5125516;28;20031;-56
2022/08/03 14:44:20;;;;;;;1.55;0.90;;;;;;;;;;5123317;28;20046;-57
2022/08/03 14:46:46;;;;;;;3.13;1.65;;;;;;;;;;5121890;28;20039;-57
2022/08/03 14:49:11;;;;;;;1.17;0.73;;;;;;;;;;5124086;28;20390;-56